Time;durP1;ratioP1;P1;durP2;ratioP2;P2;SDS_P1;SDS_P2;PMS_P1;PMS_P2;Temp;Humidity;BMP_temperature;BMP_pressure;BME280_temperature;BME280_humidity;BME280_pressure;Samples;Min_cycle;Max_cycle;Signal;HPM_P1;HPM_P2
2022/01/29 00:01:45;;;;;;;10.57;4.40;;;4.10;99.90;;;4.68;100.00;99704.59;5021611;28;20501;-86
2022/01/29 00:04:17;;;;;;;8.30;4.23;;;4.00;99.90;;;4.73;100.00;99700.72;5019328;28;20490;-86
2022/01/29 00:06:48;;;;;;;9.77;4.97;;;4.10;99.90;;;4.72;100.00;99695.66;5021453;28;20462;-85
2022/01/29 00:09:17;;;;;;;6.47;4.13;;;4.10;99.90;;;4.72;100.00;99691.28;5016637;28;20576;-86
2022/01/29 00:11:47;;;;;;;6.13;3.60;;;4.10;99.90;;;4.73;100.00;99669.63;5017981;28;20459;-86
2022/01/29 00:14:15;;;;;;;7.57;4.60;;;4.10;99.90;;;4.73;100.00;99667.03;5018179;28;20470;-86
2022/01/29 00:16:45;;;;;;;8.23;4.87;;;4.20;99.90;;;4.75;100.00;99677.31;5017981;28;20523;-85
2022/01/29 00:19:15;;;;;;;7.03;3.77;;;4.20;99.90;;;4.71;100.00;99668.09;5020468;28;20459;-86
2022/01/29 00:21:44;;;;;;;9.10;4.77;;;4.10;99.90;;;4.67;100.00;99661.47;5016431;28;21086;-86
2022/01/29 00:24:15;;;;;;;11.33;4.20;;;4.10;99.90;;;4.64;100.00;99664.28;5009340;28;20559;-85
2022/01/29 00:26:44;;;;;;;7.77;5.23;;;4.00;99.90;;;4.62;100.00;99661.00;5020074;28;20462;-86
2022/01/29 00:29:19;;;;;;;8.00;4.73;;;4.00;99.90;;;4.58;100.00;99661.19;5019886;28;20478;-86
2022/01/29 00:31:49;;;;;;;10.23;5.17;;;3.90;99.90;;;4.58;100.00;99650.03;5016050;28;21303;-86
2022/01/29 00:34:26;;;;;;;9.30;4.97;;;3.90;99.90;;;4.64;100.00;99646.16;5016940;28;20553;-86
2022/01/29 00:36:56;;;;;;;7.87;4.80;;;4.10;99.90;;;4.64;100.00;99644.41;5018526;28;20922;-86
2022/01/29 00:39:34;;;;;;;9.70;5.53;;;4.20;99.90;;;4.64;100.00;99647.00;5016331;28;20473;-86
2022/01/29 00:42:06;;;;;;;8.90;5.30;;;4.00;99.90;;;4.54;100.00;99636.47;5000912;28;20594;-86
2022/01/29 00:44:46;;;;;;;10.07;5.90;;;4.00;99.90;;;4.52;100.00;99632.31;5019698;28;20488;-86
2022/01/29 00:47:16;;;;;;;13.20;6.33;;;4.00;99.90;;;4.51;100.00;99639.25;4999447;28;20597;-86
2022/01/29 00:49:47;;;;;;;12.30;7.20;;;4.00;99.90;;;4.48;100.00;99636.06;5019054;28;20462;-87
2022/01/29 00:52:24;;;;;;;14.00;7.07;;;3.90;99.90;;;4.45;100.00;99631.09;5017818;28;20460;-86
2022/01/29 00:54:55;;;;;;;15.57;6.67;;;3.80;99.90;;;4.46;100.00;99623.22;5020033;28;20979;-85
2022/01/29 00:57:28;;;;;;;8.73;5.83;;;4.00;99.90;;;4.49;100.00;99623.00;5018815;28;20911;-86
2022/01/29 00:59:59;;;;;;;14.23;6.60;;;4.00;99.90;;;4.52;100.00;99616.78;5017323;28;21239;-86
2022/01/29 01:02:28;;;;;;;10.80;6.17;;;4.00;99.90;;;4.53;100.00;99608.91;5017118;28;20514;-86
2022/01/29 01:05:00;;;;;;;11.50;7.43;;;4.00;99.90;;;4.49;100.00;99597.09;5017322;28;20505;-86
2022/01/29 01:07:30;;;;;;;15.40;7.00;;;4.00;99.90;;;4.50;100.00;99598.78;5018751;28;20472;-86
2022/01/29 01:10:02;;;;;;;16.17;7.10;;;4.00;99.90;;;4.49;100.00;99597.09;5017341;28;20485;-86
2022/01/29 01:12:32;;;;;;;14.30;7.20;;;4.00;99.90;;;4.49;100.00;99604.88;5018173;28;20473;-86
2022/01/29 01:15:01;;;;;;;10.70;6.47;;;4.00;99.90;;;4.51;100.00;99609.97;5017359;28;20500;-86
2022/01/29 01:17:30;;;;;;;16.57;7.50;;;4.00;99.90;;;4.47;100.00;99606.75;5020000;28;20473;-86
2022/01/29 01:20:00;;;;;;;14.40;7.63;;;4.00;99.90;;;4.47;100.00;99611.13;5000246;28;20468;-86
2022/01/29 01:22:30;;;;;;;14.97;7.20;;;3.90;99.90;;;4.48;100.00;99616.16;5014746;28;20580;-86
2022/01/29 01:25:01;;;;;;;14.27;6.90;;;3.90;99.90;;;4.51;100.00;99615.16;5002185;28;20985;-86
2022/01/29 01:27:31;;;;;;;9.47;6.57;;;4.00;99.90;;;4.52;100.00;99602.06;5018980;28;20459;-85
2022/01/29 01:30:02;;;;;;;15.13;8.00;;;4.00;99.90;;;4.47;100.00;99604.19;5015613;28;21230;-86
2022/01/29 01:32:31;;;;;;;11.57;6.87;;;4.00;99.90;;;4.45;100.00;99608.63;5019267;28;20567;-86
2022/01/29 01:35:09;;;;;;;14.40;7.17;;;4.00;99.90;;;4.42;100.00;99614.03;5020373;28;20546;-86
2022/01/29 01:37:45;;;;;;;11.47;6.90;;;3.80;99.90;;;4.46;100.00;99612.03;5016716;28;20577;-86
2022/01/29 01:40:17;;;;;;;11.00;6.17;;;3.90;99.90;;;4.45;100.00;99616.38;5019963;28;20885;-86
2022/01/29 01:42:48;;;;;;;15.03;7.40;;;3.90;99.90;;;4.43;100.00;99620.88;5017847;28;20493;-86
2022/01/29 01:45:17;;;;;;;13.43;7.17;;;3.90;99.90;;;4.42;100.00;99611.44;5019845;28;20866;-86
2022/01/29 01:47:47;;;;;;;12.90;6.87;;;3.80;99.90;;;4.44;100.00;99609.53;5019238;28;20574;-86
2022/01/29 01:50:18;;;;;;;13.50;8.20;;;3.90;99.90;;;4.44;100.00;99612.13;5018115;28;20526;-86
2022/01/29 01:52:49;;;;;;;14.67;8.10;;;3.90;99.90;;;4.47;100.00;99604.19;5019368;28;20469;-86
2022/01/29 01:55:19;;;;;;;15.87;7.60;;;3.90;99.90;;;4.46;100.00;99602.50;5022915;28;20450;-87
2022/01/29 01:57:49;;;;;;;13.43;6.47;;;4.00;99.90;;;4.46;100.00;99605.09;5020953;28;20454;-85
2022/01/29 02:00:19;;;;;;;16.13;6.90;;;4.00;99.90;;;4.43;100.00;99597.56;5017018;28;20468;-86
2022/01/29 02:02:48;;;;;;;15.37;7.60;;;3.80;99.90;;;4.42;100.00;99587.28;4997441;28;20537;-86
2022/01/29 02:05:18;;;;;;;15.87;8.73;;;3.90;99.90;;;4.42;100.00;99582.13;5020084;28;20477;-86
2022/01/29 02:07:48;;;;;;;16.40;7.70;;;3.80;99.90;;;4.43;100.00;99582.03;5017392;28;20558;-86
2022/01/29 02:10:21;;;;;;;14.80;8.10;;;3.80;99.90;;;4.42;100.00;99579.53;5017965;28;20479;-86
2022/01/29 02:12:56;;;;;;;13.87;6.80;;;3.80;99.90;;;4.43;100.00;99574.25;5017247;28;20472;-86
2022/01/29 02:15:27;;;;;;;19.07;7.30;;;3.80;99.90;;;4.32;100.00;99587.13;5016679;28;20773;-86
2022/01/29 02:17:58;;;;;;;14.30;7.60;;;3.70;99.90;;;4.34;100.00;99561.16;5018167;28;20481;-86
2022/01/29 02:20:29;;;;;;;12.37;6.70;;;3.70;99.90;;;4.35;100.00;99561.03;4999916;28;20472;-86
2022/01/29 02:23:00;;;;;;;16.57;8.17;;;3.80;99.90;;;4.30;100.00;99570.06;5016153;28;20529;-86
2022/01/29 02:25:38;;;;;;;13.57;7.57;;;3.70;99.90;;;4.37;100.00;99559.13;5018068;28;21245;-86
2022/01/29 02:28:10;;;;;;;13.83;8.00;;;3.80;99.90;;;4.38;100.00;99563.38;5016500;28;20594;-86
2022/01/29 02:30:43;;;;;;;16.67;7.53;;;3.90;99.90;;;4.37;100.00;99569.50;5014946;28;20470;-86
2022/01/29 02:33:16;;;;;;;13.13;7.30;;;3.80;99.90;;;4.40;100.00;99566.72;5017777;28;20555;-86
2022/01/29 02:35:50;;;;;;;14.80;6.50;;;3.90;99.90;;;4.39;100.00;99561.63;5014959;28;20552;-86
2022/01/29 02:38:24;;;;;;;14.37;7.77;;;3.80;99.90;;;4.38;100.00;99550.44;5014695;28;20469;-87
2022/01/29 02:40:59;;;;;;;15.13;7.83;;;3.80;99.90;;;4.41;100.00;99541.59;5016207;28;20456;-86
2022/01/29 02:43:35;;;;;;;11.70;6.83;;;3.90;99.90;;;4.40;100.00;99535.63;5013885;28;20528;-86
2022/01/29 02:46:12;;;;;;;14.27;7.57;;;4.00;99.90;;;4.39;100.00;99523.63;5014324;28;20531;-86
2022/01/29 02:48:41;;;;;;;14.30;7.33;;;3.90;99.90;;;4.37;100.00;99522.88;5018255;28;20486;-86
2022/01/29 02:51:11;;;;;;;14.33;6.50;;;3.90;99.90;;;4.37;100.00;99520.28;5013309;28;20488;-86
2022/01/29 02:53:42;;;;;;;15.80;7.80;;;3.90;99.90;;;4.39;100.00;99518.44;4996358;28;20565;-85
2022/01/29 02:56:13;;;;;;;12.57;6.73;;;3.90;99.90;;;4.41;100.00;99515.72;5015462;28;20477;-86
2022/01/29 02:58:44;;;;;;;16.70;7.40;;;3.90;99.90;;;4.41;100.00;99515.72;4998546;28;20560;-85
2022/01/29 03:01:14;;;;;;;12.77;6.87;;;3.90;99.90;;;4.42;100.00;99507.84;5015108;28;20467;-86
2022/01/29 03:03:44;;;;;;;12.77;7.20;;;3.90;99.90;;;4.45;100.00;99507.63;5016940;28;21026;-86
2022/01/29 03:06:15;;;;;;;9.70;5.57;;;3.90;99.90;;;4.43;100.00;99501.75;4997805;28;20470;-86
2022/01/29 03:08:45;;;;;;;9.53;5.73;;;3.90;99.90;;;4.44;100.00;99494.81;5014272;28;20525;-86
2022/01/29 03:11:19;;;;;;;10.07;5.50;;;4.00;99.90;;;4.43;100.00;99493.97;5014147;28;20457;-86
2022/01/29 03:13:49;;;;;;;9.40;6.50;;;3.90;99.90;;;4.45;100.00;99481.72;5012024;28;20472;-87
2022/01/29 03:16:19;;;;;;;8.53;4.87;;;3.90;99.90;;;4.43;100.00;99475.84;5013889;28;20480;-86
2022/01/29 03:18:49;;;;;;;9.63;5.37;;;3.90;99.90;;;4.44;100.00;99468.91;5013378;28;20472;-86
2022/01/29 03:21:18;;;;;;;10.57;5.40;;;4.00;99.90;;;4.41;100.00;99459.59;5013459;28;20465;-86
2022/01/29 03:23:50;;;;;;;9.00;5.40;;;4.00;99.90;;;4.43;100.00;99449.94;5014075;28;20504;-85
2022/01/29 03:26:21;;;;;;;6.83;4.70;;;4.00;99.90;;;4.41;100.00;99441.44;4997239;28;20940;-86
2022/01/29 03:28:51;;;;;;;8.23;5.00;;;3.90;99.90;;;4.38;100.00;99427.91;5015094;28;20472;-86
2022/01/29 03:31:20;;;;;;;9.80;5.07;;;3.80;99.90;;;4.38;100.00;99423.56;5016155;28;21477;-85
2022/01/29 03:33:57;;;;;;;9.97;4.80;;;3.90;99.90;;;4.40;100.00;99420.88;5017495;28;20473;-86
2022/01/29 03:36:27;;;;;;;7.83;4.37;;;3.90;99.90;;;4.43;100.00;99416.28;5018893;28;20458;-86
2022/01/29 03:39:00;;;;;;;8.07;4.57;;;3.90;99.90;;;4.42;100.00;99424.16;5018327;28;20472;-86
2022/01/29 03:41:31;;;;;;;7.00;4.33;;;3.90;99.90;;;4.42;100.00;99422.41;5018993;28;20467;-86
2022/01/29 03:44:05;;;;;;;7.53;4.67;;;4.00;99.90;;;4.41;100.00;99433.69;4998184;28;20527;-86
2022/01/29 03:46:36;;;;;;;7.40;5.00;;;4.00;99.90;;;4.42;100.00;99429.34;5001022;28;20523;-86
2022/01/29 03:49:07;;;;;;;7.73;4.80;;;3.90;99.90;;;4.45;100.00;99435.13;5016848;28;20634;-86
2022/01/29 03:51:36;;;;;;;9.30;5.20;;;3.90;99.90;;;4.42;100.00;99444.88;5019059;28;20516;-86
2022/01/29 03:54:07;;;;;;;9.33;4.80;;;3.80;99.90;;;4.42;100.00;99434.50;5016463;28;20689;-85
2022/01/29 03:56:37;;;;;;;8.40;4.87;;;3.80;99.90;;;4.47;100.00;99435.84;5015854;28;20562;-85
2022/01/29 03:59:07;;;;;;;9.60;5.67;;;3.90;99.90;;;4.39;100.00;99425.22;5016403;28;20473;-86
2022/01/29 04:01:38;;;;;;;7.87;4.90;;;3.80;99.90;;;4.37;100.00;99452.97;5014636;28;20568;-85
2022/01/29 04:04:07;;;;;;;12.83;6.27;;;3.80;99.90;;;4.38;100.00;99449.44;5014679;28;20865;-85
2022/01/29 04:06:38;;;;;;;9.53;5.80;;;3.80;99.90;;;4.45;100.00;99442.06;5016495;28;20461;-86
2022/01/29 04:09:11;;;;;;;8.73;5.40;;;3.90;99.90;;;4.48;100.00;99455.59;5019768;28;20469;-85
2022/01/29 04:11:42;;;;;;;8.73;5.30;;;3.90;99.90;;;4.41;100.00;99454.41;5020035;28;20866;-86
2022/01/29 04:14:16;;;;;;;13.50;5.60;;;3.90;99.90;;;4.37;100.00;99439.22;5016033;28;20469;-85
2022/01/29 04:16:47;;;;;;;12.00;6.60;;;3.80;99.90;;;4.40;100.00;99415.69;5017283;28;20556;-86
2022/01/29 04:19:17;;;;;;;12.33;6.47;;;3.80;99.90;;;4.41;100.00;99412.97;5015825;28;20486;-86
2022/01/29 04:21:47;;;;;;;14.27;7.30;;;3.90;99.90;;;4.42;100.00;99421.56;5015593;28;21057;-86
2022/01/29 04:24:18;;;;;;;10.70;6.20;;;3.90;99.90;;;4.39;100.00;99419.22;5013650;28;20559;-86
2022/01/29 04:26:48;;;;;;;12.20;6.80;;;3.90;99.90;;;4.39;100.00;99429.56;5014283;28;20469;-86
2022/01/29 04:29:19;;;;;;;12.20;6.37;;;3.80;99.90;;;4.41;100.00;99428.50;5015173;28;20477;-86
2022/01/29 04:32:05;;;;;;;12.33;7.57;;;3.90;99.90;;;4.40;100.00;99426.88;5015128;28;20553;-79
2022/01/29 04:34:35;;;;;;;15.57;8.20;;;3.90;99.90;;;4.37;100.00;99423.69;5017482;28;20478;-86
2022/01/29 04:37:07;;;;;;;11.40;6.10;;;3.80;99.90;;;4.37;100.00;99416.72;5020744;28;20484;-86
2022/01/29 04:39:38;;;;;;;12.73;6.57;;;3.90;99.90;;;4.41;100.00;99433.69;5020531;28;20494;-85
2022/01/29 04:42:08;;;;;;;11.60;6.47;;;3.90;99.90;;;4.28;100.00;99421.75;5015321;28;20508;-81
2022/01/29 04:44:38;;;;;;;11.83;6.73;;;3.80;99.90;;;4.24;100.00;99413.41;5015557;28;20532;-86
2022/01/29 04:47:16;;;;;;;11.70;6.70;;;3.80;99.90;;;4.25;100.00;99417.66;5019707;28;20464;-87
2022/01/29 04:49:46;;;;;;;11.50;5.93;;;3.70;99.90;;;4.28;100.00;99420.00;5022202;28;20973;-86
2022/01/29 04:52:14;;;;;;;10.93;6.60;;;3.80;99.90;;;4.25;100.00;99414.22;5019318;28;20517;-86
2022/01/29 04:54:48;;;;;;;8.23;5.50;;;3.70;99.90;;;4.19;100.00;99407.75;5018259;28;20580;-86
2022/01/29 04:57:19;;;;;;;12.23;6.10;;;3.60;99.90;;;4.22;100.00;99401.50;5017733;28;20961;-87
2022/01/29 04:59:49;;;;;;;9.80;5.90;;;3.70;99.90;;;4.18;100.00;99395.75;5018298;28;20464;-87
2022/01/29 05:02:20;;;;;;;10.40;5.73;;;3.60;99.90;;;4.21;100.00;99394.69;5020061;28;20465;-87
2022/01/29 05:04:50;;;;;;;9.50;5.67;;;3.70;99.90;;;4.19;100.00;99392.22;4999691;28;20949;-86
2022/01/29 05:07:20;;;;;;;13.63;7.70;;;3.70;99.90;;;4.18;100.00;99393.16;5015454;28;20564;-87
2022/01/29 05:09:51;;;;;;;11.37;5.13;;;3.60;99.90;;;4.22;100.00;99389.41;5014592;28;20463;-84
2022/01/29 05:12:27;;;;;;;8.43;4.33;;;3.60;99.90;;;4.16;100.00;99397.63;5017544;28;20469;-86
2022/01/29 05:29:10;;;;;;;6.93;4.30;;;3.70;99.90;;;4.23;100.00;99388.47;5095424;28;20459;-87
2022/01/29 05:31:41;;;;;;;5.77;3.87;;;3.80;99.90;;;4.21;100.00;99385.16;5095651;28;20506;-88
2022/01/29 05:34:12;;;;;;;5.37;4.03;;;3.70;99.90;;;4.19;100.00;99392.22;5097213;28;20463;-87
2022/01/29 05:36:43;;;;;;;6.47;4.17;;;3.80;99.90;;;4.18;100.00;99392.31;5099021;28;20874;-88
2022/01/29 05:39:14;;;;;;;6.40;3.78;;;3.70;99.90;;;4.17;100.00;99399.25;5098038;28;20459;-88
2022/01/29 05:41:45;;;;;;;7.03;4.40;;;3.70;99.90;;;4.19;100.00;99397.41;5101542;28;20669;-88
2022/01/29 05:44:14;;;;;;;5.93;3.50;;;3.80;99.90;;;4.19;100.00;99397.41;5101728;28;20470;-88
2022/01/29 05:46:45;;;;;;;8.10;4.40;;;3.80;99.90;;;4.20;100.00;99387.88;5101143;28;20449;-89
2022/01/29 05:49:16;;;;;;;8.53;4.30;;;3.70;99.90;;;4.19;100.00;99379.28;5092728;28;20454;-88
2022/01/29 05:51:47;;;;;;;7.03;3.77;;;3.70;99.90;;;4.11;100.00;99384.19;5094025;28;20466;-88
2022/01/29 05:54:17;;;;;;;5.00;3.47;;;3.60;99.90;;;4.17;100.00;99396.66;5092212;28;20447;-88
2022/01/29 05:56:47;;;;;;;6.57;3.67;;;3.60;99.90;;;4.14;100.00;99380.53;5094881;28;20520;-88
2022/01/29 05:59:17;;;;;;;5.57;3.57;;;3.60;99.90;;;4.15;100.00;99375.25;5096120;28;20616;-88
2022/01/29 06:01:47;;;;;;;5.00;3.20;;;3.70;99.90;;;4.09;100.00;99374.91;5096112;28;20454;-88
2022/01/29 06:04:18;;;;;;;3.40;3.00;;;3.60;99.90;;;4.04;100.00;99383.81;5096149;28;20574;-88
2022/01/29 06:06:47;;;;;;;4.50;3.20;;;3.50;99.90;;;3.94;100.00;99382.00;5095479;28;20512;-88
2022/01/29 06:09:17;;;;;;;4.70;3.27;;;3.30;99.90;;;4.01;100.00;99378.03;5095043;28;20558;-88
2022/01/29 06:11:47;;;;;;;4.70;2.93;;;3.40;99.90;;;4.05;100.00;99369.94;5092932;28;20482;-90
2022/01/29 06:14:17;;;;;;;4.73;3.40;;;3.60;99.90;;;4.08;100.00;99379.25;5092804;28;20453;-87
2022/01/29 06:16:47;;;;;;;4.10;2.93;;;3.60;99.90;;;4.05;100.00;99385.47;5094296;28;21062;-89
2022/01/29 06:19:19;;;;;;;5.27;3.07;;;3.50;99.90;;;4.15;100.00;99390.78;5091344;28;21067;-87
2022/01/29 06:21:50;;;;;;;3.10;2.80;;;3.60;99.90;;;4.10;100.00;99377.34;5093715;28;20553;-88
2022/01/29 06:24:21;;;;;;;5.03;3.23;;;3.50;99.90;;;4.01;100.00;99376.28;5092092;28;20511;-88
2022/01/29 06:26:50;;;;;;;3.63;2.70;;;3.40;99.90;;;4.03;100.00;99370.97;5091914;28;20506;-88
2022/01/29 06:29:21;;;;;;;4.70;3.13;;;3.40;99.90;;;4.10;100.00;99377.34;5080149;28;20952;-88
2022/01/29 06:31:51;;;;;;;3.70;2.67;;;3.50;99.90;;;4.14;100.00;99383.97;5079199;28;20523;-89
2022/01/29 06:34:22;;;;;;;4.00;2.80;;;3.60;99.90;;;4.06;100.00;99375.97;5086546;28;20466;-90
2022/01/29 06:36:52;;;;;;;2.97;2.67;;;3.50;99.90;;;4.04;100.00;99383.00;5076646;28;20572;-89
2022/01/29 06:39:22;;;;;;;5.00;2.90;;;3.50;99.90;;;4.05;100.00;99371.72;5087194;28;20516;-88
2022/01/29 06:41:51;;;;;;;3.70;2.87;;;3.50;99.90;;;4.07;100.00;99364.66;5085492;28;20957;-88
2022/01/29 06:44:21;;;;;;;3.47;2.47;;;3.60;99.90;;;4.04;100.00;99385.56;5083953;28;20486;-87
2022/01/29 06:46:53;;;;;;;3.20;2.83;;;3.40;99.90;;;4.05;100.00;99375.13;5085767;28;20473;-87
2022/01/29 06:49:25;;;;;;;5.40;3.40;;;3.50;99.90;;;4.09;100.00;99380.06;5084892;28;20465;-91
2022/01/29 06:51:55;;;;;;;4.20;2.70;;;3.50;99.90;;;4.11;100.00;99379.00;5087885;28;20814;-88
2022/01/29 06:54:25;;;;;;;3.87;2.17;;;3.60;99.90;;;4.16;100.00;99382.09;5085862;28;20481;-89
2022/01/29 06:56:55;;;;;;;2.37;2.17;;;3.70;99.90;;;4.16;100.00;99381.28;5085481;28;20515;-88
2022/01/29 06:59:25;;;;;;;3.73;2.70;;;3.70;99.90;;;4.19;100.00;99387.03;5085953;28;20493;-88
2022/01/29 07:01:55;;;;;;;2.40;2.20;;;3.80;99.90;;;4.12;100.00;99380.66;5083049;28;20844;-89
2022/01/29 07:04:25;;;;;;;2.60;2.23;;;3.60;99.90;;;4.13;100.00;99374.53;5083952;28;20856;-88
2022/01/29 07:06:56;;;;;;;2.60;2.37;;;3.60;99.90;;;4.16;100.00;99371.75;5086777;28;20454;-88
2022/01/29 07:09:26;;;;;;;3.50;2.73;;;3.70;99.90;;;4.18;100.00;99380.22;5085595;28;20449;-88
2022/01/29 07:11:59;;;;;;;2.30;2.10;;;3.70;99.90;;;4.16;100.00;99387.28;5085015;28;20449;-89
2022/01/29 07:14:31;;;;;;;2.10;1.90;;;3.60;99.90;;;4.14;100.00;99375.38;5087038;28;20469;-90
2022/01/29 07:17:01;;;;;;;2.50;2.07;;;3.50;99.90;;;4.09;100.00;99375.72;5083165;28;20513;-87
2022/01/29 07:19:31;;;;;;;2.17;1.93;;;3.50;99.90;;;4.12;100.00;99375.50;5086745;28;20482;-89
2022/01/29 07:22:02;;;;;;;1.80;1.70;;;3.50;99.90;;;4.16;100.00;99382.09;5085260;28;20478;-89
2022/01/29 07:24:32;;;;;;;2.40;2.20;;;3.60;99.90;;;4.16;100.00;99387.28;5086203;28;20512;-89
2022/01/29 07:27:02;;;;;;;2.80;2.00;;;3.60;99.90;;;4.12;100.00;99385.84;5085390;28;20528;-88
2022/01/29 07:29:32;;;;;;;2.00;1.90;;;3.60;99.90;;;4.16;100.00;99382.09;5086085;28;20457;-89
2022/01/29 07:32:03;;;;;;;1.93;1.80;;;3.60;99.90;;;4.14;100.00;99373.59;5082609;28;20495;-88
2022/01/29 07:34:35;;;;;;;1.90;1.70;;;3.60;99.90;;;4.21;100.00;99374.81;5085149;28;20534;-88
2022/01/29 07:37:05;;;;;;;2.13;1.93;;;3.70;99.90;;;4.22;100.00;99381.63;5085563;28;20998;-90
2022/01/29 07:39:36;;;;;;;2.20;2.00;;;3.70;99.90;;;4.16;100.00;99376.91;5083611;28;20566;-89
2022/01/29 07:42:07;;;;;;;2.30;2.10;;;3.60;99.90;;;4.19;100.00;99379.28;5083416;28;20516;-89
2022/01/29 07:44:36;;;;;;;1.70;1.60;;;3.70;99.90;;;4.14;100.00;99378.78;5084504;28;20475;-88
2022/01/29 07:47:07;;;;;;;1.77;1.67;;;3.60;99.90;;;4.17;100.00;99367.38;5087202;28;20466;-89
2022/01/29 07:49:38;;;;;;;1.93;1.70;;;3.60;99.90;;;4.20;100.00;99362.78;5078735;28;20520;-90
2022/01/29 07:52:09;;;;;;;3.37;2.00;;;3.70;99.90;;;4.23;100.00;99357.41;5081198;28;20448;-89
2022/01/29 07:54:39;;;;;;;4.80;2.10;;;3.70;99.90;;;4.28;100.00;99354.44;5079456;28;20998;-88
2022/01/29 07:57:10;;;;;;;2.50;1.70;;;3.80;99.90;;;4.30;100.00;99348.25;5079437;28;20506;-88
2022/01/29 07:59:41;;;;;;;1.73;1.63;;;3.70;99.90;;;4.33;100.00;99348.00;5079932;28;20486;-90
2022/01/29 08:02:12;;;;;;;2.40;2.00;;;3.80;99.90;;;4.33;100.00;99350.59;5077632;28;20439;-88
2022/01/29 08:04:45;;;;;;;2.27;1.60;;;3.80;99.90;;;4.35;100.00;99364.25;5078350;28;20442;-88
2022/01/29 08:07:15;;;;;;;1.63;1.50;;;3.90;99.90;;;4.40;100.00;99363.91;5077926;28;20877;-89
2022/01/29 08:09:49;;;;;;;2.00;1.80;;;3.90;99.90;;;4.38;100.00;99355.41;5078919;28;20447;-90
2022/01/29 08:12:18;;;;;;;1.60;1.50;;;3.90;99.90;;;4.41;100.00;99350.00;5075804;28;20683;-89
2022/01/29 08:14:48;;;;;;;1.60;1.50;;;4.00;99.90;;;4.41;100.00;99348.25;5078530;28;20474;-88
2022/01/29 08:17:17;;;;;;;2.17;1.77;;;4.00;99.90;;;4.37;100.00;99348.59;5077691;28;20480;-87
2022/01/29 08:19:49;;;;;;;3.13;1.90;;;3.90;99.90;;;4.37;100.00;99351.19;5076932;28;20444;-87
2022/01/29 08:22:19;;;;;;;3.77;2.57;;;3.80;99.90;;;4.40;100.00;99349.19;5077458;28;20792;-88
2022/01/29 08:24:48;;;;;;;3.33;2.23;;;3.90;99.90;;;4.37;100.00;99349.41;5078681;28;20934;-88
2022/01/29 08:27:19;;;;;;;2.60;2.10;;;3.90;99.90;;;4.38;100.00;99345.88;5080788;28;20542;-86
2022/01/29 08:29:48;;;;;;;3.13;2.30;;;3.90;99.90;;;4.30;100.00;99339.66;5078739;28;20884;-88
2022/01/29 08:32:18;;;;;;;2.83;1.93;;;3.70;99.90;;;4.31;100.00;99339.50;5080570;28;20559;-88
2022/01/29 08:34:49;;;;;;;2.30;1.83;;;3.80;99.90;;;4.36;100.00;99340.00;5083650;28;20953;-88
2022/01/29 08:37:18;;;;;;;1.87;1.73;;;3.80;99.90;;;4.39;100.00;99344.94;5083157;28;20454;-89
2022/01/29 08:39:48;;;;;;;4.33;2.63;;;3.90;99.90;;;4.45;100.00;99349.66;5084387;28;20858;-89
2022/01/29 08:42:18;;;;;;;2.60;2.20;;;4.00;99.90;;;4.42;100.00;99344.72;5084618;28;20466;-87
2022/01/29 08:44:48;;;;;;;2.90;2.07;;;3.90;99.90;;;4.42;100.00;99352.47;5085445;28;20541;-88
2022/01/29 08:47:17;;;;;;;2.10;1.90;;;3.90;99.90;;;4.43;100.00;99346.38;5082740;28;20530;-88
2022/01/29 08:49:50;;;;;;;2.10;1.60;;;4.00;99.90;;;4.32;100.00;99336.00;5082556;28;20878;-90
2022/01/29 08:52:20;;;;;;;4.33;2.30;;;3.70;99.90;;;4.39;100.00;99333.75;5083529;28;20859;-88
2022/01/29 08:54:49;;;;;;;1.73;1.63;;;3.80;99.90;;;4.44;100.00;99327.28;5083189;28;20483;-89
2022/01/29 08:57:18;;;;;;;3.00;1.70;;;3.90;99.90;;;4.42;100.00;99328.34;5085418;28;20450;-88
2022/01/29 08:59:48;;;;;;;1.67;1.57;;;3.90;99.90;;;4.44;100.00;99321.31;5079599;28;20486;-88
2022/01/29 09:02:18;;;;;;;1.97;1.53;;;3.90;99.90;;;4.48;100.00;99315.75;5084997;28;20513;-90
2022/01/29 09:04:50;;;;;;;1.60;1.50;;;4.00;99.90;;;4.49;100.00;99317.41;5082881;28;20469;-88
2022/01/29 09:07:20;;;;;;;1.80;1.67;;;3.90;99.90;;;4.53;100.00;99311.06;5081758;28;20459;-89
2022/01/29 09:09:51;;;;;;;2.37;1.67;;;4.00;99.90;;;4.54;100.00;99304.13;5084478;28;20452;-87
2022/01/29 09:12:21;;;;;;;2.53;1.60;;;4.00;99.90;;;4.49;100.00;99299.28;5078353;28;20461;-88
2022/01/29 09:14:51;;;;;;;2.40;1.87;;;3.90;99.90;;;4.57;100.00;99293.53;5084598;28;20951;-89
2022/01/29 09:17:22;;;;;;;1.57;1.33;;;4.00;99.90;;;4.65;100.00;99298.13;5081866;28;20487;-89
2022/01/29 09:19:54;;;;;;;1.70;1.53;;;4.10;99.90;;;4.60;100.00;99297.63;5083043;28;20559;-89
2022/01/29 09:22:25;;;;;;;2.93;1.87;;;4.00;99.90;;;4.49;100.00;99301.88;5084032;28;20463;-88
2022/01/29 09:24:56;;;;;;;2.80;1.70;;;3.90;99.90;;;4.55;100.00;99300.56;5084483;28;20463;-89
2022/01/29 09:27:27;;;;;;;2.60;1.77;;;3.90;99.90;;;4.54;100.00;99298.94;5081991;28;20841;-89
2022/01/29 09:29:56;;;;;;;1.80;1.63;;;3.90;99.90;;;4.55;100.00;99285.03;5080475;28;20468;-90
2022/01/29 09:32:27;;;;;;;1.63;1.20;;;3.90;99.90;;;4.62;100.00;99281.03;5081266;28;20532;-88
2022/01/29 09:34:58;;;;;;;1.30;1.20;;;4.10;99.90;;;4.65;100.00;99279.97;5082064;28;20459;-89
2022/01/29 09:37:27;;;;;;;1.80;1.43;;;4.20;99.90;;;4.66;100.00;99284.19;5087436;28;20639;-89
2022/01/29 09:39:58;;;;;;;1.80;1.70;;;4.20;99.90;;;4.67;100.00;99275.50;5084266;28;20503;-89
2022/01/29 09:42:29;;;;;;;1.70;1.60;;;4.20;99.90;;;4.66;100.00;99286.78;5087276;28;20940;-90
2022/01/29 09:45:01;;;;;;;2.60;1.93;;;4.10;99.90;;;4.70;100.00;99288.19;5086833;28;20484;-89
2022/01/29 09:47:32;;;;;;;1.57;1.47;;;4.20;99.90;;;4.71;100.00;99279.50;5081941;28;20472;-89
2022/01/29 09:50:09;;;;;;;2.00;1.70;;;4.20;99.90;;;4.62;100.00;99275.03;5075370;28;20487;-90
2022/01/29 09:52:40;;;;;;;2.80;1.83;;;4.00;99.90;;;4.69;100.00;99279.59;5077231;28;20448;-89
2022/01/29 09:55:13;;;;;;;1.40;1.30;;;4.10;99.90;;;4.77;100.00;99268.66;5081910;28;20444;-90
2022/01/29 09:57:44;;;;;;;1.90;1.50;;;4.20;99.90;;;4.79;100.00;99271.97;5081223;28;20563;-89
2022/01/29 10:00:17;;;;;;;1.80;1.50;;;4.30;99.90;;;4.82;100.00;99269.13;5087231;28;20495;-88
2022/01/29 10:03:38;;;;;;;1.70;1.57;;;4.20;99.90;;;4.84;100.00;99264.63;5092407;28;20476;-89
2022/01/29 10:06:17;;;;;;;1.80;1.67;;;4.40;99.90;;;4.88;100.00;99273.81;5087324;28;20506;-90
2022/01/29 10:08:54;;;;;;;1.70;1.40;;;4.40;99.90;;;4.92;100.00;99270.88;5087282;28;20467;-89
2022/01/29 10:11:30;;;;;;;1.90;1.80;;;4.50;99.90;;;4.89;100.00;99273.72;5093992;28;20448;-89
2022/01/29 10:14:06;;;;;;;2.27;1.77;;;4.50;99.90;;;4.89;100.00;99278.06;5087324;28;20462;-89
2022/01/29 10:16:47;;;;;;;2.30;1.53;;;4.50;99.90;;;4.92;100.00;99283.00;5093341;28;20489;-90
2022/01/29 10:19:19;;;;;;;2.03;1.83;;;4.50;99.90;;;4.81;100.00;99275.25;5085091;28;20545;-89
2022/01/29 10:21:50;;;;;;;2.00;1.60;;;4.30;99.90;;;4.81;100.00;99273.47;5082675;28;20825;-87
2022/01/29 10:24:22;;;;;;;1.87;1.30;;;4.30;99.90;;;4.81;100.00;99270.06;5081391;28;20452;-89
2022/01/29 10:27:08;;;;;;;1.53;1.43;;;4.10;99.90;;;4.88;100.00;99260.84;5082769;28;20452;-89
2022/01/29 10:29:39;;;;;;;1.57;1.47;;;4.30;99.90;;;4.97;100.00;99263.53;5081353;28;20538;-88
2022/01/29 10:32:09;;;;;;;1.80;1.70;;;4.50;99.90;;;5.01;100.00;99258.94;5086224;28;21116;-88
2022/01/29 10:34:40;;;;;;;1.43;1.17;;;4.60;99.90;;;4.98;100.00;99256.59;5085935;28;20951;-88
2022/01/29 10:37:17;;;;;;;2.27;1.37;;;4.50;99.90;;;4.98;100.00;99261.78;5087680;28;20821;-88
2022/01/29 10:39:51;;;;;;;1.40;1.30;;;4.50;99.90;;;5.04;100.00;99256.09;5084831;28;20841;-88
2022/01/29 10:42:25;;;;;;;1.50;1.40;;;4.60;99.90;;;5.11;100.00;99259.03;5086357;28;20942;-88
2022/01/29 10:44:59;;;;;;;1.63;1.23;;;4.70;99.90;;;5.05;100.00;99255.16;5087190;28;20995;-88
2022/01/29 10:47:32;;;;;;;1.20;1.10;;;4.60;99.90;;;5.06;100.00;99260.25;5086638;28;20431;-88
2022/01/29 10:50:06;;;;;;;1.53;0.90;;;4.60;99.90;;;5.16;100.00;99265.50;5086813;28;20475;-88
2022/01/29 10:52:37;;;;;;;1.20;1.10;;;4.70;99.90;;;5.15;100.00;99261.25;5086410;28;20455;-87
2022/01/29 10:55:09;;;;;;;1.07;0.97;;;4.70;99.90;;;5.19;100.00;99257.47;5079216;28;21014;-88